createdAt,value
2022-12-23T00:00:40.623Z,389.4
2022-12-23T00:02:44.881Z,383.1
2022-12-23T00:04:48.688Z,386
2022-12-23T00:08:56.795Z,385.2
2022-12-23T00:11:03.906Z,380.8
2022-12-23T00:13:07.871Z,385.4
2022-12-23T00:15:11.891Z,384
2022-12-23T00:17:34.338Z,380.1
2022-12-23T00:19:38.379Z,385.1
2022-12-23T00:21:42.428Z,389.9
2022-12-23T00:23:49.471Z,385.2
2022-12-23T00:25:53.516Z,388.6
2022-12-23T00:27:57.539Z,387.5
2022-12-23T00:30:01.650Z,389
2022-12-23T00:32:05.664Z,389.4
2022-12-23T00:34:09.643Z,387.9
2022-12-23T00:36:13.798Z,386
2022-12-23T00:40:24.788Z,390.4
2022-12-23T00:42:28.821Z,391.5
2022-12-23T00:44:32.867Z,390.2
2022-12-23T00:46:36.890Z,387
2022-12-23T00:52:52.025Z,384.5
2022-12-23T00:54:56.045Z,386
2022-12-23T00:57:00.140Z,384
2022-12-23T01:01:08.211Z,380.3
2022-12-23T01:03:12.270Z,376.6
2022-12-23T01:05:16.242Z,380.2
2022-12-23T01:07:23.289Z,385.6
2022-12-23T01:09:27.304Z,384.6
2022-12-23T01:11:31.347Z,379.2
2022-12-23T01:12:34.874Z,376.5
2022-12-23T01:14:38.917Z,379.2
2022-12-23T01:16:43.007Z,382.5
2022-12-23T01:18:46.994Z,389
2022-12-23T01:20:54.009Z,389.8
2022-12-23T01:22:58.083Z,391.9
2022-12-23T01:24:56.127Z,388.4
2022-12-23T01:27:00.185Z,372
2022-12-23T01:29:04.189Z,382.7
2022-12-23T01:31:08.241Z,368.7
2022-12-23T01:35:19.311Z,385.6
2022-12-23T01:39:27.380Z,377.2
2022-12-23T01:41:31.403Z,379.7
2022-12-23T01:43:35.452Z,378.4
2022-12-23T01:45:39.542Z,382.6
2022-12-23T01:47:43.504Z,382.7
2022-12-23T01:49:50.550Z,384.3
2022-12-23T01:51:54.606Z,380
2022-12-23T01:53:58.627Z,381
2022-12-23T01:56:03.173Z,378.9
2022-12-23T01:58:08.249Z,378
2022-12-23T02:02:16.624Z,383.7
2022-12-23T02:06:27.350Z,379.9
2022-12-23T02:08:31.404Z,367.4
2022-12-23T02:09:34.902Z,373.2
2022-12-23T02:11:38.943Z,366.9
2022-12-23T02:13:43.011Z,366.9
2022-12-23T02:17:54.031Z,380.5
2022-12-23T02:22:02.111Z,379.4
2022-12-23T02:24:06.152Z,378.6
2022-12-23T02:26:10.155Z,386.9
2022-12-23T02:28:14.182Z,385.5
2022-12-23T02:30:18.204Z,377.9
2022-12-23T02:32:25.271Z,381.1
2022-12-23T02:34:29.261Z,374.4
2022-12-23T02:36:33.325Z,372.6
2022-12-23T02:38:37.339Z,361.3
2022-12-23T02:40:41.356Z,363.1
2022-12-23T02:42:45.434Z,366.3
2022-12-23T02:44:49.415Z,368.5
2022-12-23T02:49:00.517Z,365
2022-12-23T02:51:04.525Z,332.7
2022-12-23T02:53:08.547Z,348.9
2022-12-23T02:55:12.582Z,352.9
2022-12-23T02:57:16.602Z,352.9
2022-12-23T03:01:27.750Z,338.7
2022-12-23T03:03:31.718Z,345.1
2022-12-23T03:05:35.733Z,336
2022-12-23T03:06:39.233Z,334.6
2022-12-23T03:08:43.296Z,342.3
2022-12-23T03:10:47.308Z,338.4
2022-12-23T03:12:51.316Z,338.2
2022-12-23T03:14:58.360Z,323.4
2022-12-23T03:17:02.416Z,321.8
2022-12-23T03:19:06.412Z,325.3
2022-12-23T03:21:10.438Z,323.7
2022-12-23T03:23:14.438Z,322.7
2022-12-23T03:25:18.500Z,314.7
2022-12-23T03:35:41.585Z,308.6
2022-12-23T03:37:45.598Z,310.5
2022-12-23T03:44:00.653Z,297.2
2022-12-23T03:48:08.714Z,301
2022-12-23T03:50:12.726Z,296.6
2022-12-23T03:52:20.996Z,296.4
2022-12-23T03:54:20.753Z,300.1
2022-12-23T03:56:24.739Z,303.7
2022-12-23T03:58:31.795Z,302.4
2022-12-23T04:00:35.804Z,301.7
2022-12-23T04:02:39.955Z,297.3
2022-12-23T04:05:02.001Z,296.6
2022-12-23T04:07:05.993Z,288.9
2022-12-23T04:09:10.021Z,294.7
2022-12-23T04:11:17.106Z,292.8
2022-12-23T04:13:21.085Z,292.1
2022-12-23T04:15:25.104Z,292.1
2022-12-23T04:17:29.112Z,286.9
2022-12-23T04:19:33.112Z,287.4
2022-12-23T04:21:37.133Z,283.2
2022-12-23T04:23:41.147Z,279.2
2022-12-23T04:25:48.172Z,276
2022-12-23T04:27:52.220Z,271.5
2022-12-23T04:29:56.195Z,273.5
2022-12-23T04:32:00.230Z,271.9
2022-12-23T04:34:04.224Z,274.1
2022-12-23T04:36:08.236Z,277.5
2022-12-23T04:38:12.242Z,262.2
2022-12-23T04:40:19.248Z,250.1
2022-12-23T04:42:23.285Z,247.1
2022-12-23T04:44:27.306Z,239.6
2022-12-23T04:46:31.323Z,231.8
2022-12-23T04:48:35.316Z,241.4
2022-12-23T04:50:39.401Z,231.6
2022-12-23T04:52:43.455Z,236.8
2022-12-23T04:54:50.377Z,228.8
2022-12-23T04:56:54.370Z,223.2
2022-12-23T04:58:58.389Z,214.3
2022-12-23T05:02:06.227Z,213.7
2022-12-23T05:04:09.951Z,212.2
2022-12-23T05:08:21.005Z,196.1
2022-12-23T05:10:25.027Z,198.2
2022-12-23T05:12:29.031Z,194.2
2022-12-23T05:14:33.027Z,185.4
2022-12-23T05:16:37.193Z,186.5
2022-12-23T05:18:41.069Z,185.6
2022-12-23T05:20:45.071Z,186
2022-12-23T05:22:52.077Z,179.5
2022-12-23T05:24:56.100Z,176.1
2022-12-23T05:27:00.709Z,165.4
2022-12-23T05:29:04.128Z,163.4
2022-12-23T05:31:08.255Z,162.3
2022-12-23T05:33:12.256Z,155.7
2022-12-23T05:35:16.131Z,154.3
2022-12-23T05:39:27.170Z,153.9
2022-12-23T05:45:39.217Z,158.4
2022-12-23T05:47:43.214Z,154.1
2022-12-23T05:53:58.256Z,149.3
2022-12-23T05:57:05.728Z,155.4
2022-12-23T05:59:09.754Z,152.3
2022-12-23T06:01:13.760Z,153.4
2022-12-23T06:03:17.997Z,158.9
2022-12-23T06:05:24.793Z,156.4
2022-12-23T06:07:28.772Z,148.6
2022-12-23T06:09:32.807Z,156.3
2022-12-23T06:11:36.796Z,150.7
2022-12-23T06:13:40.770Z,151.3
2022-12-23T06:15:44.796Z,149.6
2022-12-23T06:17:48.805Z,157.2
2022-12-23T06:19:55.827Z,157.8
2022-12-23T06:21:59.804Z,164
2022-12-23T06:24:03.818Z,164.1
2022-12-23T06:26:07.833Z,159.6
2022-12-23T06:28:11.812Z,159.1
2022-12-23T06:30:15.861Z,170
2022-12-23T06:32:19.945Z,170.9
2022-12-23T06:34:26.820Z,174.5
2022-12-23T06:36:30.815Z,172.6
2022-12-23T06:38:34.819Z,177.6
2022-12-23T06:40:38.830Z,180.1
2022-12-23T06:42:42.818Z,177.1
2022-12-23T06:44:46.834Z,183
2022-12-23T06:46:50.834Z,186.8
2022-12-23T06:48:57.818Z,191.7
2022-12-23T06:53:05.853Z,186.9
2022-12-23T07:00:21.316Z,188.6
2022-12-23T07:02:28.460Z,193.9
2022-12-23T07:04:32.312Z,193.2
2022-12-23T07:06:36.307Z,191.4
2022-12-23T07:08:40.319Z,193.8
2022-12-23T07:10:44.295Z,194.6
2022-12-23T07:16:59.392Z,202.4
2022-12-23T07:19:03.289Z,208.6
2022-12-23T07:21:15.554Z,209.8
2022-12-23T07:23:11.306Z,213.6
2022-12-23T07:25:15.288Z,214.3
2022-12-23T07:27:19.291Z,212.7
2022-12-23T07:29:23.288Z,214.8
2022-12-23T07:35:38.283Z,210.1
2022-12-23T07:37:42.191Z,204.7
2022-12-23T07:39:46.143Z,213.6
2022-12-23T07:41:58.994Z,206.9
2022-12-23T07:43:54.129Z,40.8
2022-12-23T07:48:05.119Z,33.5
2022-12-23T07:50:09.143Z,48.5
2022-12-23T07:52:31.266Z,33.9
2022-12-23T07:58:47.780Z,25
2022-12-23T08:00:52.463Z,27.6
2022-12-23T08:02:56.513Z,22.6
2022-12-23T08:07:04.428Z,18.1
2022-12-23T08:11:12.515Z,28.8
2022-12-23T08:15:23.423Z,38
2022-12-23T08:17:27.432Z,34.9
2022-12-23T08:21:35.430Z,27.6
2022-12-23T08:23:39.413Z,19.9
2022-12-23T08:25:43.416Z,16.7
2022-12-23T08:29:54.407Z,23
2022-12-23T08:31:58.394Z,43.8
2022-12-23T08:34:02.416Z,35.4
2022-12-23T08:36:06.388Z,30
2022-12-23T08:38:10.413Z,24.9
2022-12-23T08:40:14.384Z,34.2
2022-12-23T08:42:21.396Z,39.9
2022-12-23T08:44:25.398Z,22.3
2022-12-23T08:46:29.520Z,34.2
2022-12-23T08:47:33.009Z,46.1
2022-12-23T08:49:36.902Z,58.9
2022-12-23T08:51:40.898Z,34.2
2022-12-23T08:53:44.914Z,42.8
2022-12-23T08:57:55.905Z,41.3
2022-12-23T09:04:07.881Z,49.4
2022-12-23T09:06:11.891Z,48.2
2022-12-23T09:08:15.904Z,34.4
2022-12-23T09:10:22.955Z,50.8
2022-12-23T09:12:26.917Z,32.5
2022-12-23T09:16:34.997Z,62
2022-12-23T09:18:38.938Z,59.9
2022-12-23T09:20:42.919Z,48
2022-12-23T09:24:53.929Z,82
2022-12-23T09:26:57.932Z,34.3
2022-12-23T09:29:01.937Z,52.1
2022-12-23T09:31:05.988Z,54.9
2022-12-23T09:33:09.946Z,44.6
2022-12-23T09:35:13.940Z,42.1
2022-12-23T09:37:17.966Z,38.6
2022-12-23T09:39:24.944Z,36.9
2022-12-23T09:41:28.939Z,50.9
2022-12-23T09:43:33.023Z,58.3
2022-12-23T09:44:36.474Z,32.3
2022-12-23T09:46:40.555Z,63.6
2022-12-23T09:48:44.473Z,60.1
2022-12-23T09:52:55.537Z,48.3
2022-12-23T09:57:03.521Z,40
2022-12-23T10:03:15.688Z,42.7
2022-12-23T10:05:19.565Z,28.6
2022-12-23T10:07:26.569Z,51.8
2022-12-23T10:11:34.557Z,30.1
2022-12-23T10:13:38.598Z,53.7
2022-12-23T10:15:42.609Z,34.5
2022-12-23T10:17:46.586Z,42.4
2022-12-23T10:19:50.608Z,41.7
2022-12-23T10:21:57.615Z,68.1
2022-12-23T10:24:01.610Z,52.3
2022-12-23T10:26:05.620Z,68.4
2022-12-23T10:28:09.763Z,50.3
2022-12-23T10:30:34.172Z,37.2
2022-12-23T10:32:17.853Z,41.6
2022-12-23T10:40:36.758Z,55.6
2022-12-23T10:41:40.202Z,70.1
2022-12-23T10:43:44.364Z,29.8
2022-12-23T10:45:48.225Z,46.4
2022-12-23T10:47:52.217Z,58.6
2022-12-23T10:49:59.243Z,48.3
2022-12-23T10:52:03.255Z,42.2
2022-12-23T10:54:07.278Z,103.1
2022-12-23T10:58:15.288Z,32.5
2022-12-23T11:00:19.333Z,34.7
2022-12-23T11:02:23.508Z,32.4
2022-12-23T11:06:37.525Z,41.9
2022-12-23T11:08:38.381Z,53.5
2022-12-23T11:10:42.381Z,22.1
2022-12-23T11:12:46.394Z,32.3
2022-12-23T11:16:54.533Z,53.3
2022-12-23T11:19:01.419Z,52
2022-12-23T11:23:09.418Z,48.9
2022-12-23T11:25:13.469Z,23.1
2022-12-23T11:27:17.469Z,24.9
2022-12-23T11:29:21.489Z,32.1
2022-12-23T11:31:25.505Z,31.8
2022-12-23T11:33:32.572Z,34.6
2022-12-23T11:35:36.790Z,16.3
2022-12-23T11:37:40.573Z,23.4
2022-12-23T11:40:02.853Z,28.5
2022-12-23T11:42:06.880Z,28.6
2022-12-23T11:44:10.896Z,15.5
2022-12-23T11:46:17.990Z,20.3
2022-12-23T11:48:21.921Z,25.6
2022-12-23T11:50:25.954Z,18.9
2022-12-23T11:54:34.039Z,16.2
2022-12-23T12:00:55.149Z,17.4
2022-12-23T12:02:53.211Z,15.6
2022-12-23T12:04:57.065Z,17.4
2022-12-23T12:09:05.113Z,34.9
2022-12-23T12:11:09.128Z,27.7
2022-12-23T12:13:13.149Z,12.4
2022-12-23T12:15:20.159Z,41.9
2022-12-23T12:17:24.189Z,9.2
2022-12-23T12:19:28.185Z,13.6
2022-12-23T12:27:44.219Z,27
2022-12-23T12:29:51.275Z,15.9
2022-12-23T12:31:55.296Z,16.2
2022-12-23T12:33:59.290Z,20.6
2022-12-23T12:37:06.810Z,20.1
2022-12-23T12:39:10.858Z,17.5
2022-12-23T12:41:14.871Z,16
2022-12-23T12:43:21.990Z,34.7
2022-12-23T12:45:25.901Z,19.3
2022-12-23T12:47:53.245Z,34.3
2022-12-23T12:49:33.956Z,24.4
2022-12-23T12:51:37.982Z,14.2
2022-12-23T12:53:41.974Z,30
2022-12-23T12:55:45.974Z,32.6
2022-12-23T12:57:53.008Z,28
2022-12-23T13:00:03.628Z,19.3
2022-12-23T13:02:01.184Z,27.5
2022-12-23T13:04:05.060Z,41.8
2022-12-23T13:08:13.118Z,34.9
2022-12-23T13:10:17.127Z,63.5
2022-12-23T13:12:24.226Z,27.6
2022-12-23T13:14:28.169Z,37.6
2022-12-23T13:16:32.227Z,18.6
2022-12-23T13:18:36.179Z,13.4
2022-12-23T13:20:40.236Z,36.6
2022-12-23T13:22:44.223Z,18.8
2022-12-23T13:24:48.267Z,25.2
2022-12-23T13:26:55.282Z,31.3
2022-12-23T13:28:59.291Z,18
2022-12-23T13:31:03.399Z,26.7
2022-12-23T13:34:10.860Z,35.4
2022-12-23T13:36:14.939Z,29.2
2022-12-23T13:38:18.919Z,44.2
2022-12-23T13:40:25.919Z,29.9
2022-12-23T13:42:29.925Z,41
2022-12-23T13:44:33.951Z,15.3
2022-12-23T13:50:46.013Z,30.6
2022-12-23T13:54:58.602Z,32.3
2022-12-23T13:57:02.614Z,14.9
2022-12-23T13:59:06.615Z,30
2022-12-23T14:03:14.766Z,27.9
2022-12-23T14:05:18.707Z,30.6
2022-12-23T14:07:22.717Z,24.5
2022-12-23T14:09:29.755Z,16.8
2022-12-23T14:11:33.788Z,20
2022-12-23T14:13:37.912Z,30.1
2022-12-23T14:15:41.853Z,17.9
2022-12-23T14:17:45.810Z,21.2
2022-12-23T14:19:49.839Z,15
2022-12-23T14:21:53.982Z,25
2022-12-23T14:26:04.907Z,23
2022-12-23T14:28:08.907Z,23
2022-12-23T14:29:12.420Z,20.8
2022-12-23T14:31:16.558Z,26.9
2022-12-23T14:33:20.475Z,22.1
2022-12-23T14:35:24.487Z,35.2
2022-12-23T14:37:31.585Z,14.2
2022-12-23T14:39:35.542Z,11.9
2022-12-23T14:41:39.581Z,16.9
2022-12-23T14:43:43.541Z,23.3
2022-12-23T14:45:47.570Z,28.3
2022-12-23T14:47:51.596Z,9.7
2022-12-23T14:49:55.609Z,26.7
2022-12-23T14:54:06.662Z,16.9
2022-12-23T14:56:10.685Z,12.4
2022-12-23T14:58:14.696Z,16.1
2022-12-23T15:06:33.833Z,11.1
2022-12-23T15:08:37.851Z,21.3
2022-12-23T15:10:41.998Z,17.6
2022-12-23T15:12:45.886Z,27.8
2022-12-23T15:14:49.899Z,38.1
2022-12-23T15:16:53.976Z,7.8
2022-12-23T15:18:57.959Z,16
2022-12-23T15:21:04.979Z,28.6
2022-12-23T15:23:08.990Z,11
2022-12-23T15:25:13.022Z,26
2022-12-23T15:27:35.419Z,25.6
2022-12-23T15:29:39.447Z,34.1
2022-12-23T15:31:43.489Z,22.6
2022-12-23T15:34:05.299Z,22.4
2022-12-23T15:35:54.538Z,16.8
2022-12-23T15:37:58.531Z,26.1
2022-12-23T15:40:11.873Z,20
2022-12-23T15:42:06.529Z,348
2022-12-23T15:44:10.549Z,346.4
2022-12-23T15:46:14.638Z,346.9
2022-12-23T15:48:21.602Z,345.5
2022-12-23T15:50:25.604Z,341.7
2022-12-23T15:52:29.629Z,339.2
2022-12-23T15:54:33.660Z,338.8
2022-12-23T15:56:37.662Z,344.5
2022-12-23T15:58:41.702Z,340.5
2022-12-23T16:00:45.737Z,338.1
2022-12-23T16:03:02.380Z,337.1
2022-12-23T16:04:56.741Z,331.9
2022-12-23T16:07:00.795Z,331.4
2022-12-23T16:09:04.793Z,334.1
2022-12-23T16:11:08.811Z,336.1
2022-12-23T16:13:12.854Z,332.7
2022-12-23T16:15:16.870Z,322.4
2022-12-23T16:17:23.902Z,322.6
2022-12-23T16:19:27.926Z,310.6
2022-12-23T16:22:35.487Z,312.1
2022-12-23T16:26:43.559Z,306
2022-12-23T16:30:54.629Z,301.2
2022-12-23T16:32:58.597Z,295.5
2022-12-23T16:35:02.668Z,297.1
2022-12-23T16:37:06.644Z,284.3
2022-12-23T16:39:10.677Z,285.7
2022-12-23T16:41:14.682Z,287.2
2022-12-23T16:43:18.697Z,288.3
2022-12-23T16:45:25.759Z,288.2
2022-12-23T16:47:29.765Z,274.5
2022-12-23T16:49:34.326Z,273.5
2022-12-23T16:51:37.804Z,274.7
2022-12-23T16:55:52.459Z,281.7
2022-12-23T16:57:49.871Z,278.3
2022-12-23T16:59:56.881Z,269.3
2022-12-23T17:02:03.743Z,272.9
2022-12-23T17:04:04.933Z,266.2
2022-12-23T17:06:08.941Z,274.3
2022-12-23T17:08:12.973Z,273
2022-12-23T17:10:16.987Z,278.8
2022-12-23T17:12:21.015Z,273.6
2022-12-23T17:18:36.066Z,279.9
2022-12-23T17:19:39.597Z,287.9
2022-12-23T17:21:43.597Z,289.9
2022-12-23T17:23:47.644Z,286.8
2022-12-23T17:25:51.653Z,294.2
2022-12-23T17:27:58.704Z,292.4
2022-12-23T17:30:02.751Z,293.7
2022-12-23T17:32:06.794Z,289.9
2022-12-23T17:34:10.779Z,297.1
2022-12-23T17:36:14.889Z,293.1
2022-12-23T17:38:18.800Z,290.3
2022-12-23T17:40:22.841Z,288.2
2022-12-23T17:42:29.903Z,285.2
2022-12-23T17:44:33.871Z,282.6
2022-12-23T17:46:37.895Z,298.6
2022-12-23T17:48:41.893Z,298.6
2022-12-23T17:50:48.557Z,308.4
2022-12-23T17:52:49.936Z,302.5
2022-12-23T17:54:53.967Z,296.2
2022-12-23T18:03:13.024Z,309.3
2022-12-23T18:05:17.051Z,306.3
2022-12-23T18:07:21.059Z,305.5
2022-12-23T18:09:25.073Z,312.7
2022-12-23T18:11:32.094Z,330.1
2022-12-23T18:13:36.124Z,318.4
2022-12-23T18:15:40.157Z,394.8
2022-12-23T18:16:43.728Z,428
2022-12-23T18:20:51.683Z,327.7
2022-12-23T18:22:55.757Z,324.7
2022-12-23T18:29:10.767Z,327.5
2022-12-23T18:33:18.791Z,326.8
2022-12-23T18:35:22.791Z,326.9
2022-12-23T18:39:33.851Z,341.3
2022-12-23T18:41:37.930Z,335.9
2022-12-23T18:43:41.915Z,330.1
2022-12-23T18:47:49.896Z,334.1
2022-12-23T18:56:08.985Z,351.2
2022-12-23T18:58:13.009Z,342.1
2022-12-23T19:02:21.231Z,356.5
2022-12-23T19:06:29.162Z,360.1
2022-12-23T19:10:40.228Z,376.8
2022-12-23T19:15:02.475Z,383.1
2022-12-23T19:17:06.507Z,379.8
2022-12-23T19:19:10.537Z,385.8
2022-12-23T19:23:21.602Z,395.7
2022-12-23T19:25:25.644Z,392.3
2022-12-23T19:27:29.691Z,390.3
2022-12-23T19:29:33.747Z,394.6
2022-12-23T19:33:41.818Z,392.3
2022-12-23T19:35:48.854Z,414.6
2022-12-23T19:37:52.927Z,407.4
2022-12-23T19:39:56.959Z,408.7
2022-12-23T19:42:00.988Z,410.7
2022-12-23T19:44:05.058Z,420.4
2022-12-23T19:48:13.145Z,427.6
2022-12-23T19:50:21.725Z,427.2
2022-12-23T19:52:25.767Z,424.5
2022-12-23T19:54:29.845Z,435.4
2022-12-23T19:56:33.902Z,461.6
2022-12-23T20:00:41.962Z,464.2
2022-12-23T20:02:46.126Z,465
2022-12-23T20:04:53.095Z,452.2
2022-12-23T20:09:01.414Z,426.9
2022-12-23T20:10:04.701Z,437.8
2022-12-23T20:12:08.731Z,453.7
2022-12-23T20:14:12.821Z,451.6
2022-12-23T20:16:16.862Z,438.8
2022-12-23T20:18:23.892Z,444.5
2022-12-23T20:22:32.012Z,425.2
2022-12-23T20:26:40.095Z,437.5
2022-12-23T20:30:48.210Z,439.3
2022-12-23T20:32:55.217Z,434.5
2022-12-23T20:34:59.315Z,433.2
2022-12-23T20:37:03.315Z,439.8
2022-12-23T20:39:07.383Z,434.2
2022-12-23T20:43:15.684Z,428.8
2022-12-23T20:45:19.530Z,419.5
2022-12-23T20:47:26.584Z,395
2022-12-23T20:49:30.674Z,414.3
2022-12-23T20:57:46.842Z,387.4
2022-12-23T21:01:58.028Z,385.9
2022-12-23T21:04:02.012Z,381.2
2022-12-23T21:06:06.071Z,380.1
2022-12-23T21:07:09.599Z,370.3
2022-12-23T21:09:13.644Z,363.2
2022-12-23T21:11:17.684Z,345.2
2022-12-23T21:13:21.729Z,340.9
2022-12-23T21:15:28.860Z,335.4
2022-12-23T21:17:32.832Z,321.3
2022-12-23T21:19:36.900Z,305.9
2022-12-23T21:21:40.942Z,296.3
2022-12-23T21:25:49.047Z,273.8
2022-12-23T21:32:04.340Z,201.1
2022-12-23T21:34:08.292Z,179.9
2022-12-23T21:36:17.841Z,162.8
2022-12-23T21:38:16.348Z,143.2
2022-12-23T21:40:20.427Z,125.3
2022-12-23T21:42:24.491Z,105.8
2022-12-23T21:44:31.533Z,88
2022-12-23T21:46:35.710Z,77.2
2022-12-23T21:48:39.709Z,79.9
2022-12-23T21:50:43.750Z,64.6
2022-12-23T21:56:55.904Z,33.7
2022-12-23T22:01:07.196Z,21.2
2022-12-23T22:06:18.640Z,27
2022-12-23T22:08:22.708Z,20.2
2022-12-23T22:10:26.789Z,22.3
2022-12-23T22:12:33.863Z,44.7
2022-12-23T22:14:37.889Z,15.8
2022-12-23T22:16:42.059Z,16.6
2022-12-23T22:18:46.002Z,12.7
2022-12-23T22:20:50.039Z,29.3
2022-12-23T22:22:54.094Z,17.2
2022-12-23T22:24:58.154Z,20.3
2022-12-23T22:27:05.201Z,16.7
2022-12-23T22:29:09.253Z,8.5
2022-12-23T22:31:13.396Z,10
2022-12-23T22:33:17.350Z,7.4
2022-12-23T22:35:21.423Z,7.7
2022-12-23T22:39:29.480Z,12.2
2022-12-23T22:43:40.566Z,8.1
2022-12-23T22:45:44.718Z,22.6
2022-12-23T22:49:52.718Z,20.9
2022-12-23T22:54:00.786Z,17.1
2022-12-23T22:58:11.882Z,16.9
2022-12-23T23:00:15.931Z,22.1
2022-12-23T23:02:34.417Z,27.4
2022-12-23T23:04:38.375Z,34.7
2022-12-23T23:06:42.435Z,47
2022-12-23T23:08:49.452Z,45.4
2022-12-23T23:10:53.534Z,39.4
2022-12-23T23:12:57.539Z,37.9
2022-12-23T23:15:01.616Z,46
2022-12-23T23:17:05.656Z,39.3
2022-12-23T23:21:13.685Z,37.8
2022-12-23T23:23:20.740Z,42.6
2022-12-23T23:25:24.832Z,49.6
2022-12-23T23:27:28.843Z,46.5
2022-12-23T23:29:32.855Z,44.4
2022-12-23T23:31:42.530Z,43.6
2022-12-23T23:33:40.915Z,41.6
2022-12-23T23:35:44.960Z,44.2
2022-12-23T23:37:51.985Z,47.9
2022-12-23T23:39:56.019Z,41.6
2022-12-23T23:42:00.081Z,43.9
2022-12-23T23:44:04.100Z,52.6
2022-12-23T23:46:08.190Z,38.8
2022-12-23T23:48:12.156Z,37.6
2022-12-23T23:50:16.185Z,39.5
2022-12-23T23:52:23.236Z,29.5
2022-12-23T23:54:27.274Z,25.4
2022-12-23T23:56:37.473Z,44.6
2022-12-23T23:57:34.814Z,52.3
